Time;durP1;ratioP1;P1;durP2;ratioP2;P2;SDS_P1;SDS_P2;PMS_P1;PMS_P2;Temp;Humidity;BMP_temperature;BMP_pressure;BME280_temperature;BME280_humidity;BME280_pressure;Samples;Min_cycle;Max_cycle;Signal;HPM_P1;HPM_P2
2022/05/31 07:43:01;;;;;;;4.72;4.43;;;11.80;99.90;;;;;;5070695;28;20591;-71
2022/05/31 07:45:28;;;;;;;4.60;3.47;;;12.10;99.90;;;;;;5071033;28;20524;-72
2022/05/31 07:47:53;;;;;;;6.28;3.80;;;11.90;99.90;;;;;;5070687;28;20247;-72
2022/05/31 07:50:19;;;;;;;4.13;3.85;;;12.00;99.90;;;;;;5070585;28;20248;-72
2022/05/31 07:52:45;;;;;;;4.63;3.45;;;12.30;99.90;;;;;;5070526;28;20195;-72
2022/05/31 07:55:11;;;;;;;3.70;3.40;;;12.60;99.90;;;;;;5069260;28;20179;-72
2022/05/31 08:00:22;;;;;;;6.75;4.22;;;12.70;99.90;;;;;;5070583;28;20221;-72
2022/05/31 08:02:48;;;;;;;4.43;3.70;;;12.70;99.90;;;;;;5069059;28;20607;-72
2022/05/31 08:05:14;;;;;;;5.63;4.22;;;12.70;99.90;;;;;;5069083;28;20502;-72
2022/05/31 08:07:40;;;;;;;3.90;3.60;;;12.90;99.90;;;;;;5070290;28;20255;-72
2022/05/31 08:10:08;;;;;;;4.03;3.67;;;13.00;99.90;;;;;;5070237;28;20208;-72
2022/05/31 08:12:34;;;;;;;3.92;3.67;;;13.10;99.90;;;;;;5070159;28;20168;-73
2022/05/31 08:15:00;;;;;;;3.88;3.58;;;13.30;99.90;;;;;;5070152;28;20171;-73
2022/05/31 08:17:26;;;;;;;8.55;3.70;;;13.30;99.90;;;;;;5070030;28;20169;-73
2022/05/31 08:19:54;;;;;;;5.65;3.95;;;13.40;99.90;;;;;;5069923;28;20664;-73
2022/05/31 08:22:20;;;;;;;3.85;3.55;;;13.40;99.90;;;;;;5069913;28;20192;-73
2022/05/31 08:24:46;;;;;;;5.95;4.10;;;14.10;99.90;;;;;;5069963;28;20176;-72
2022/05/31 08:27:13;;;;;;;5.25;3.97;;;13.90;99.90;;;;;;5068714;28;20259;-73
2022/05/31 08:29:39;;;;;;;4.53;3.80;;;13.40;99.90;;;;;;5069856;28;20180;-72
2022/05/31 08:32:05;;;;;;;3.67;3.38;;;13.40;99.90;;;;;;5068379;28;20523;-72
2022/05/31 08:34:32;;;;;;;4.78;3.47;;;13.20;99.90;;;;;;5069624;28;20686;-73
2022/05/31 08:36:58;;;;;;;4.00;3.60;;;13.10;99.90;;;;;;5069739;28;20164;-72
2022/05/31 08:39:24;;;;;;;4.88;4.53;;;12.90;99.90;;;;;;5069605;28;20160;-72
2022/05/31 08:41:56;;;;;;;7.47;4.38;;;12.70;99.90;;;;;;5069336;28;20235;-72
2022/05/31 08:44:28;;;;;;;5.22;4.55;;;13.10;99.90;;;;;;5068269;28;20252;-72
2022/05/31 08:47:01;;;;;;;4.95;4.55;;;12.40;99.90;;;;;;5068399;28;20172;-72
2022/05/31 08:52:26;;;;;;;5.90;4.00;;;12.30;99.90;;;;;;5067562;28;20237;-72
2022/05/31 08:57:56;;;;;;;5.63;4.60;;;12.20;99.90;;;;;;5056107;28;20199;-72
2022/05/31 09:00:31;;;;;;;5.13;4.72;;;12.30;99.90;;;;;;5054942;28;20176;-73
2022/05/31 09:03:23;;;;;;;6.95;5.53;;;12.10;99.90;;;;;;5055957;28;20600;-72
2022/05/31 09:06:05;;;;;;;5.25;4.88;;;12.70;99.90;;;;;;5056016;28;20169;-72
2022/05/31 09:08:36;;;;;;;6.07;5.53;;;12.20;99.90;;;;;;5055896;28;20223;-72
2022/05/31 09:11:12;;;;;;;5.50;4.65;;;12.30;99.90;;;;;;5055787;28;20180;-73
2022/05/31 09:13:41;;;;;;;6.43;4.55;;;12.30;99.90;;;;;;5055730;28;20259;-72
2022/05/31 09:16:36;;;;;;;5.57;5.07;;;12.40;99.90;;;;;;5054708;28;20173;-72
2022/05/31 09:19:09;;;;;;;5.50;5.05;;;12.50;99.90;;;;;;5055621;28;20169;-73
2022/05/31 09:21:45;;;;;;;5.90;4.13;;;13.20;99.90;;;;;;5054269;28;20250;-73
2022/05/31 09:24:13;;;;;;;6.53;4.55;;;12.90;99.90;;;;;;5054281;28;20175;-72
2022/05/31 09:26:57;;;;;;;7.15;4.60;;;13.60;99.90;;;;;;5054559;28;20180;-73
2022/05/31 09:29:55;;;;;;;4.80;4.38;;;13.10;99.90;;;;;;5055685;28;20176;-73
2022/05/31 09:32:23;;;;;;;5.72;4.55;;;13.10;99.90;;;;;;5055279;28;20173;-73
2022/05/31 09:35:17;;;;;;;5.80;4.68;;;13.10;99.90;;;;;;5054099;28;20533;-73
2022/05/31 09:37:43;;;;;;;4.45;4.25;;;13.10;99.90;;;;;;5055392;28;20188;-73
2022/05/31 09:40:31;;;;;;;5.00;4.50;;;13.10;99.90;;;;;;5054088;28;20263;-73
2022/05/31 09:43:03;;;;;;;5.15;4.35;;;13.00;99.90;;;;;;5053681;28;20308;-73
2022/05/31 09:45:33;;;;;;;5.07;4.63;;;13.00;99.90;;;;;;5053872;28;20203;-73
2022/05/31 09:48:00;;;;;;;5.43;4.50;;;13.30;99.90;;;;;;5053795;28;20165;-73
2022/05/31 09:50:28;;;;;;;5.82;5.13;;;13.00;99.90;;;;;;5053768;28;20169;-73
2022/05/31 09:52:57;;;;;;;4.75;4.38;;;13.90;99.90;;;;;;5055091;28;20572;-73
2022/05/31 09:58:26;;;;;;;5.45;4.95;;;13.00;99.90;;;;;;5055006;28;20647;-73
2022/05/31 10:01:02;;;;;;;5.38;4.88;;;13.20;99.90;;;;;;5054897;28;20729;-73
2022/05/31 10:03:44;;;;;;;5.85;4.47;;;13.30;99.90;;;;;;5053707;28;20202;-73
2022/05/31 10:06:17;;;;;;;5.47;4.57;;;13.40;99.90;;;;;;5052709;28;20637;-73
2022/05/31 10:08:43;;;;;;;4.03;3.72;;;13.90;99.90;;;;;;5054690;28;20177;-73
2022/05/31 10:11:12;;;;;;;4.68;3.95;;;13.70;99.90;;;;;;5054802;28;20184;-73
2022/05/31 10:13:41;;;;;;;4.93;4.57;;;13.80;99.90;;;;;;5054723;28;20177;-73
2022/05/31 10:16:15;;;;;;;6.18;5.18;;;14.00;99.90;;;;;;5053221;28;20180;-73
2022/05/31 10:19:10;;;;;;;4.35;4.00;;;14.10;99.90;;;;;;5053343;28;20438;-73
2022/05/31 10:21:42;;;;;;;4.00;3.78;;;14.50;99.90;;;;;;5050916;28;20211;-73
2022/05/31 10:24:41;;;;;;;5.28;3.20;;;15.10;99.90;;;;;;5054497;28;20172;-73
2022/05/31 10:27:21;;;;;;;3.90;2.97;;;15.00;99.90;;;;;;5054082;28;20184;-73
2022/05/31 10:29:52;;;;;;;3.38;2.85;;;15.50;99.90;;;;;;5053267;28;20169;-73
2022/05/31 10:32:48;;;;;;;3.03;2.72;;;15.70;99.90;;;;;;5054315;28;20176;-73
2022/05/31 10:35:19;;;;;;;3.35;3.15;;;15.90;99.90;;;;;;5053456;28;20181;-73
2022/05/31 10:37:58;;;;;;;3.53;3.22;;;15.90;99.90;;;;;;5054368;28;20173;-73
2022/05/31 10:40:31;;;;;;;3.25;3.05;;;15.90;99.90;;;;;;5054097;28;20191;-73
2022/05/31 10:43:03;;;;;;;4.18;2.65;;;16.00;99.90;;;;;;5053883;28;20673;-73
2022/05/31 10:45:33;;;;;;;3.35;2.75;;;16.20;99.90;;;;;;5054013;28;20161;-73
2022/05/31 10:47:59;;;;;;;2.40;2.20;;;16.30;99.90;;;;;;5054003;28;20169;-73
2022/05/31 10:50:48;;;;;;;2.88;2.67;;;16.40;99.90;;;;;;5052713;28;20177;-73
2022/05/31 10:53:37;;;;;;;2.80;2.60;;;16.50;99.90;;;;;;5053906;28;20169;-73
2022/05/31 10:56:16;;;;;;;4.55;2.92;;;16.60;99.90;;;;;;5053296;28;20622;-73
2022/05/31 10:58:52;;;;;;;3.30;3.10;;;16.60;99.90;;;;;;5053915;28;20176;-73
2022/05/31 11:01:21;;;;;;;7.43;4.35;;;16.70;99.90;;;;;;5053653;28;20223;-73
2022/05/31 11:04:03;;;;;;;4.38;2.80;;;17.10;99.90;;;;;;5052498;28;20197;-73
2022/05/31 11:06:48;;;;;;;3.28;2.95;;;16.70;99.90;;;;;;5053668;28;20171;-73
2022/05/31 11:13:03;;;;;;;3.17;2.90;;;16.80;99.90;;;;;;5053928;28;20192;-73
2022/05/31 11:16:09;;;;;;;3.40;3.15;;;16.90;99.90;;;;;;5051307;28;20196;-73
2022/05/31 11:19:14;;;;;;;5.15;2.75;;;16.80;99.90;;;;;;5051353;28;20238;-73
2022/05/31 11:21:52;;;;;;;2.80;2.55;;;16.70;99.90;;;;;;5052373;28;20200;-73
2022/05/31 11:24:46;;;;;;;4.05;2.90;;;16.60;99.90;;;;;;5053455;28;20156;-73
2022/05/31 11:27:20;;;;;;;3.20;2.88;;;16.60;99.90;;;;;;5053412;28;20168;-73
2022/05/31 11:30:43;;;;;;;2.95;2.75;;;16.70;99.90;;;;;;5052079;28;20521;-73
2022/05/31 11:33:33;;;;;;;3.13;2.70;;;16.90;99.90;;;;;;5051107;28;20220;-73
2022/05/31 11:36:17;;;;;;;2.92;2.70;;;17.20;99.90;;;;;;5051128;28;20181;-73
2022/05/31 11:39:06;;;;;;;5.47;2.97;;;17.30;99.90;;;;;;5046809;28;20193;-73
2022/05/31 11:41:53;;;;;;;8.88;3.55;;;17.30;99.90;;;;;;5052857;28;20216;-73
2022/05/31 11:44:37;;;;;;;4.28;2.63;;;17.30;99.90;;;;;;5051952;28;20203;-73
2022/05/31 11:47:29;;;;;;;5.30;3.03;;;17.30;99.90;;;;;;5051902;28;20251;-73
2022/05/31 11:50:02;;;;;;;5.15;2.33;;;17.20;99.90;;;;;;5051834;28;20169;-73
2022/05/31 11:53:11;;;;;;;3.00;2.70;;;17.20;99.90;;;;;;5053153;28;20176;-72
2022/05/31 11:55:52;;;;;;;3.78;3.47;;;17.10;99.90;;;;;;5034232;28;20688;-73
2022/05/31 11:58:34;;;;;;;3.80;2.42;;;17.20;99.90;;;;;;5049569;28;20649;-73
2022/05/31 12:01:01;;;;;;;4.22;2.85;;;17.30;99.90;;;;;;5053062;28;20367;-73
2022/05/31 12:03:49;;;;;;;3.42;2.72;;;17.50;99.90;;;;;;5053033;28;20192;-73
2022/05/31 12:06:31;;;;;;;3.30;3.00;;;17.50;99.90;;;;;;5053009;28;20168;-73
2022/05/31 12:09:09;;;;;;;3.65;2.92;;;17.50;99.90;;;;;;5053001;28;20165;-73
2022/05/31 12:11:42;;;;;;;2.85;2.40;;;17.40;99.90;;;;;;5052944;28;20248;-73
2022/05/31 12:14:11;;;;;;;2.47;2.33;;;18.10;99.90;;;;;;5051709;28;20574;-73
2022/05/31 12:16:37;;;;;;;3.97;2.45;;;18.00;99.90;;;;;;5052874;28;20176;-73
2022/05/31 12:19:24;;;;;;;6.03;3.03;;;18.40;99.90;;;;;;5052754;28;20173;-73
2022/05/31 12:22:01;;;;;;;4.10;2.38;;;18.40;99.90;;;;;;5052776;28;20204;-73
2022/05/31 12:24:48;;;;;;;2.42;2.25;;;18.60;99.90;;;;;;5052870;28;20204;-73
2022/05/31 12:27:40;;;;;;;2.70;2.58;;;18.80;99.90;;;;;;5052730;28;20173;-73
2022/05/31 12:30:41;;;;;;;1.92;1.75;;;19.00;99.90;;;;;;5056669;28;20177;-73
2022/05/31 12:34:06;;;;;;;1.38;1.38;;;18.90;99.90;;;;;;5054400;28;20220;-73
2022/05/31 12:36:56;;;;;;;3.53;1.92;;;18.50;99.90;;;;;;5056262;28;20529;-73
2022/05/31 12:39:27;;;;;;;3.55;2.20;;;18.40;99.90;;;;;;5056518;28;20673;-73
2022/05/31 12:41:53;;;;;;;1.98;1.88;;;18.30;99.90;;;;;;5056072;28;20228;-73
2022/05/31 12:44:28;;;;;;;2.08;1.92;;;18.30;99.90;;;;;;5056351;28;20192;-73
2022/05/31 12:46:55;;;;;;;2.10;1.85;;;18.40;99.90;;;;;;5055016;28;20640;-73
2022/05/31 12:49:28;;;;;;;3.58;2.03;;;18.40;99.90;;;;;;5055013;28;20173;-73
2022/05/31 12:52:09;;;;;;;3.25;2.05;;;18.40;99.90;;;;;;5056212;28;20198;-73
2022/05/31 12:54:45;;;;;;;1.95;1.85;;;18.50;99.90;;;;;;5054879;28;20187;-73
2022/05/31 12:57:19;;;;;;;2.15;1.92;;;18.60;99.90;;;;;;5056071;28;20622;-73
2022/05/31 12:59:47;;;;;;;2.10;1.95;;;18.30;99.90;;;;;;5054841;28;20185;-73
2022/05/31 13:02:39;;;;;;;4.43;2.00;;;18.00;99.90;;;;;;5054645;28;20200;-73
2022/05/31 13:05:31;;;;;;;1.90;1.80;;;17.70;99.90;;;;;;5055653;28;20185;-73
2022/05/31 13:08:19;;;;;;;2.08;1.90;;;17.70;99.90;;;;;;5055939;28;20234;-73
2022/05/31 13:22:09;;;;;;;2.20;2.00;;;17.90;99.90;;;;;;5055750;28;20262;-73
2022/05/31 13:25:06;;;;;;;3.13;1.83;;;17.90;99.90;;;;;;5054367;28;20630;-73
2022/05/31 13:27:37;;;;;;;1.92;1.83;;;18.00;99.90;;;;;;5054602;28;20556;-73
2022/05/31 13:30:15;;;;;;;1.90;1.80;;;18.40;99.90;;;;;;5055501;28;20691;-73
2022/05/31 13:32:41;;;;;;;1.80;1.70;;;19.10;99.90;;;;;;5055561;28;20616;-73
2022/05/31 13:35:26;;;;;;;1.92;1.40;;;19.70;99.90;;;;;;5055422;28;20323;-73
2022/05/31 13:38:00;;;;;;;2.50;2.30;;;20.20;99.90;;;;;;5054120;28;20679;-73
2022/05/31 13:40:35;;;;;;;3.13;1.42;;;20.40;99.90;;;;;;5055195;28;20793;-73
2022/05/31 13:43:05;;;;;;;1.70;1.10;;;20.10;99.90;;;;;;5053938;28;20216;-73
2022/05/31 13:45:33;;;;;;;1.40;1.30;;;19.40;99.90;;;;;;5054071;28;20617;-73
2022/05/31 13:48:12;;;;;;;9.18;1.92;;;19.00;99.90;;;;;;5053953;28;20176;-73
2022/05/31 13:50:50;;;;;;;1.70;1.45;;;18.80;99.90;;;;;;5054888;28;20251;-73
2022/05/31 13:53:16;;;;;;;1.52;1.33;;;18.50;99.90;;;;;;5055071;28;20175;-73
2022/05/31 13:55:41;;;;;;;1.63;1.50;;;18.40;99.90;;;;;;5054992;28;20247;-73
2022/05/31 13:58:12;;;;;;;1.52;1.35;;;18.30;99.90;;;;;;5054989;28;20165;-73
2022/05/31 14:00:42;;;;;;;1.60;1.48;;;18.20;99.90;;;;;;5054915;28;20168;-73
2022/05/31 14:03:22;;;;;;;1.60;1.50;;;18.10;99.90;;;;;;5054774;28;20196;-72
2022/05/31 14:06:11;;;;;;;1.20;1.17;;;18.10;99.90;;;;;;5054789;28;20203;-72
2022/05/31 14:08:48;;;;;;;1.70;1.60;;;18.20;99.90;;;;;;5054859;28;20164;-72
2022/05/31 14:11:16;;;;;;;2.10;1.75;;;18.40;99.90;;;;;;5054711;28;20171;-71
2022/05/31 14:13:46;;;;;;;1.38;1.35;;;18.70;99.90;;;;;;5054657;28;20168;-73
2022/05/31 14:16:18;;;;;;;1.85;1.75;;;19.10;99.90;;;;;;5054923;28;20531;-72
2022/05/31 14:18:52;;;;;;;1.75;1.65;;;19.50;99.90;;;;;;5054621;28;20168;-72
2022/05/31 14:21:21;;;;;;;3.10;1.73;;;19.90;99.90;;;;;;5054427;28;20193;-72
2022/05/31 14:23:47;;;;;;;2.22;1.75;;;20.50;99.90;;;;;;5054515;28;20625;-72
2022/05/31 14:26:14;;;;;;;3.00;2.40;;;21.00;99.90;;;;;;5054421;28;20168;-73
2022/05/31 14:29:18;;;;;;;1.75;1.60;;;21.30;99.90;;;;;;5054360;28;20179;-71
2022/05/31 14:32:08;;;;;;;1.80;1.70;;;21.30;99.90;;;;;;5054394;28;20171;-73
2022/05/31 14:34:43;;;;;;;1.98;1.50;;;21.20;99.90;;;;;;5054231;28;20173;-73
2022/05/31 14:37:11;;;;;;;1.90;1.80;;;21.30;99.90;;;;;;5054402;28;20164;-73
2022/05/31 14:39:52;;;;;;;1.50;1.50;;;21.60;99.90;;;;;;5054060;28;20709;-73
2022/05/31 14:42:23;;;;;;;1.70;1.60;;;21.80;99.90;;;;;;5053859;28;20219;-71
2022/05/31 14:44:53;;;;;;;3.15;2.30;;;22.00;99.90;;;;;;5053884;28;20160;-71
2022/05/31 14:47:23;;;;;;;1.50;1.40;;;22.30;99.90;;;;;;5054041;28;20161;-71
2022/05/31 14:50:10;;;;;;;2.70;1.48;;;22.40;99.90;;;;;;5053963;28;20271;-71
2022/05/31 14:52:50;;;;;;;1.60;1.50;;;22.40;99.90;;;;;;5053332;28;20185;-73
2022/05/31 14:55:21;;;;;;;1.50;1.20;;;22.00;96.70;;;;;;5053862;28;20179;-71
2022/05/31 14:58:37;;;;;;;1.73;1.63;;;21.30;98.60;;;;;;5053844;28;20169;-72
2022/05/31 15:01:17;;;;;;;1.70;1.52;;;20.80;99.20;;;;;;5053716;28;20169;-72
2022/05/31 15:03:56;;;;;;;1.52;1.42;;;20.50;99.90;;;;;;5052455;28;20183;-72
2022/05/31 15:06:37;;;;;;;1.70;1.60;;;20.40;99.90;;;;;;5053763;28;20200;-72
2022/05/31 15:09:17;;;;;;;2.97;1.77;;;20.10;99.90;;;;;;5053656;28;20172;-71
2022/05/31 15:19:55;;;;;;;1.70;1.60;;;18.70;99.90;;;;;;5053753;28;20266;-71
2022/05/31 15:22:23;;;;;;;1.77;1.67;;;18.60;99.90;;;;;;5053288;28;20188;-72
2022/05/31 15:24:58;;;;;;;3.78;2.20;;;18.40;99.90;;;;;;5052261;28;20699;-71
2022/05/31 15:27:26;;;;;;;2.17;2.08;;;17.80;99.90;;;;;;5053352;28;20180;-71
2022/05/31 15:29:53;;;;;;;2.47;2.38;;;17.10;99.90;;;;;;5053422;28;20212;-71
2022/05/31 15:32:21;;;;;;;2.53;2.42;;;16.80;99.90;;;;;;5053357;28;20234;-71
2022/05/31 15:34:47;;;;;;;2.00;1.90;;;16.50;99.90;;;;;;5053121;28;20536;-71
2022/05/31 15:37:13;;;;;;;2.92;2.30;;;16.40;99.90;;;;;;5053292;28;20633;-71
2022/05/31 15:39:41;;;;;;;3.13;2.63;;;16.90;99.90;;;;;;5053286;28;20192;-71
2022/05/31 15:42:10;;;;;;;2.88;2.08;;;17.50;99.90;;;;;;5051764;28;20703;-71
2022/05/31 15:44:36;;;;;;;2.42;2.10;;;18.10;99.90;;;;;;5053195;28;20161;-71
2022/05/31 15:47:02;;;;;;;2.30;2.10;;;18.40;99.90;;;;;;5053201;28;20534;-71
2022/05/31 15:49:28;;;;;;;2.00;1.90;;;18.70;99.90;;;;;;5053096;28;20172;-72
2022/05/31 15:51:54;;;;;;;2.72;2.53;;;18.80;99.90;;;;;;5053169;28;20172;-71
2022/05/31 15:54:22;;;;;;;2.13;1.88;;;19.10;99.90;;;;;;5053182;28;20164;-72
2022/05/31 15:56:49;;;;;;;1.85;1.75;;;19.20;99.90;;;;;;5053118;28;20165;-72
2022/05/31 15:59:21;;;;;;;2.00;1.83;;;19.70;99.90;;;;;;5051899;28;20668;-72
2022/05/31 16:01:47;;;;;;;1.73;1.63;;;20.30;99.90;;;;;;5051643;28;20205;-72
2022/05/31 16:04:13;;;;;;;2.97;1.67;;;20.40;99.90;;;;;;5054677;28;20179;-72
2022/05/31 16:06:39;;;;;;;1.70;1.58;;;20.60;99.90;;;;;;5057052;28;20169;-72
2022/05/31 16:09:05;;;;;;;2.22;2.05;;;20.80;99.90;;;;;;5057009;28;20169;-72
2022/05/31 16:11:31;;;;;;;3.72;1.80;;;20.90;99.90;;;;;;5057110;28;20207;-72
2022/05/31 16:13:57;;;;;;;1.65;1.55;;;20.70;99.90;;;;;;5056897;28;20684;-72
2022/05/31 16:16:24;;;;;;;1.83;1.73;;;20.60;99.90;;;;;;5056764;28;20180;-72
2022/05/31 16:18:49;;;;;;;3.22;1.88;;;20.40;99.90;;;;;;5056787;28;20168;-72
2022/05/31 16:21:18;;;;;;;2.00;1.90;;;20.70;99.90;;;;;;5056604;28;20222;-72
2022/05/31 16:23:47;;;;;;;1.95;1.85;;;20.70;99.90;;;;;;5055447;28;20501;-72
2022/05/31 16:26:15;;;;;;;2.03;1.92;;;20.60;99.90;;;;;;5056801;28;20165;-72
2022/05/31 16:28:40;;;;;;;3.13;1.80;;;20.90;99.90;;;;;;5056573;28;20226;-72
2022/05/31 16:31:06;;;;;;;1.70;1.60;;;21.10;99.90;;;;;;5056596;28;20172;-72
2022/05/31 16:33:31;;;;;;;2.00;1.80;;;21.30;99.90;;;;;;5056549;28;20247;-72
2022/05/31 16:36:05;;;;;;;2.88;1.60;;;21.80;99.90;;;;;;5055510;28;20173;-72
2022/05/31 16:41:20;;;;;;;1.95;1.85;;;22.00;99.90;;;;;;5056404;28;20704;-72
2022/05/31 16:43:48;;;;;;;1.63;1.52;;;22.00;99.90;;;;;;5056413;28;20172;-72
2022/05/31 16:46:17;;;;;;;2.00;1.80;;;22.00;99.90;;;;;;5056288;28;20160;-72
2022/05/31 16:48:47;;;;;;;2.35;2.03;;;22.10;99.90;;;;;;5055000;28;20172;-72
2022/05/31 16:51:20;;;;;;;2.00;1.80;;;22.00;99.90;;;;;;5056330;28;20172;-72
2022/05/31 16:53:46;;;;;;;1.77;1.67;;;21.60;99.90;;;;;;5055145;28;20187;-72
2022/05/31 16:56:13;;;;;;;1.80;1.70;;;21.40;99.90;;;;;;5056130;28;20603;-72
2022/05/31 16:58:39;;;;;;;2.10;2.00;;;21.40;99.90;;;;;;5056347;28;20168;-72
2022/05/31 17:01:05;;;;;;;1.85;1.75;;;21.20;99.90;;;;;;5056035;28;20183;-72
2022/05/31 17:03:31;;;;;;;2.42;2.33;;;20.70;99.90;;;;;;5054734;28;20161;-72
2022/05/31 17:05:57;;;;;;;1.80;1.70;;;19.90;99.90;;;;;;5055966;28;20609;-72
2022/05/31 17:16:37;;;;;;;2.10;2.00;;;19.10;99.90;;;;;;5055719;28;20175;-72
2022/05/31 17:19:03;;;;;;;2.17;2.03;;;19.00;99.90;;;;;;5055522;28;20524;-72
2022/05/31 17:21:30;;;;;;;2.03;1.88;;;19.30;99.90;;;;;;5055623;28;20201;-72
2022/05/31 17:23:57;;;;;;;2.75;1.95;;;19.70;99.90;;;;;;5055670;28;20164;-72
2022/05/31 17:26:23;;;;;;;2.25;2.15;;;20.10;99.90;;;;;;5055608;28;20166;-72
2022/05/31 17:28:53;;;;;;;2.40;1.90;;;20.70;99.90;;;;;;5055564;28;20165;-72
2022/05/31 17:31:20;;;;;;;2.63;2.35;;;20.90;99.90;;;;;;5055500;28;20187;-72
2022/05/31 17:33:46;;;;;;;2.17;1.83;;;20.90;99.90;;;;;;5055478;28;20222;-72
2022/05/31 17:36:18;;;;;;;2.10;2.00;;;20.80;99.90;;;;;;5054345;28;20180;-72
2022/05/31 17:38:47;;;;;;;2.15;2.05;;;20.90;99.90;;;;;;5055373;28;20181;-72
2022/05/31 17:41:23;;;;;;;6.60;2.13;;;20.70;99.90;;;;;;5055121;28;20255;-72
2022/05/31 17:43:49;;;;;;;2.55;2.30;;;20.70;99.90;;;;;;5055281;28;20172;-72
2022/05/31 17:46:15;;;;;;;2.95;2.40;;;20.40;99.90;;;;;;5055180;28;20171;-72
2022/05/31 17:48:42;;;;;;;2.03;1.92;;;20.50;99.90;;;;;;5054117;28;20222;-72
2022/05/31 17:51:09;;;;;;;3.25;2.20;;;20.50;99.90;;;;;;5055151;28;20175;-72
2022/05/31 17:53:35;;;;;;;2.30;2.15;;;20.40;99.90;;;;;;5055090;28;20252;-72
2022/05/31 17:56:01;;;;;;;3.78;2.08;;;20.60;99.90;;;;;;5053798;28;20247;-72
2022/05/31 17:58:26;;;;;;;2.83;2.13;;;20.80;99.90;;;;;;5054937;28;20171;-72
2022/05/31 18:00:52;;;;;;;3.35;2.25;;;21.00;99.90;;;;;;5054954;28;20169;-72
2022/05/31 18:03:18;;;;;;;2.72;2.33;;;20.70;99.90;;;;;;5053568;28;20204;-72
2022/05/31 18:05:43;;;;;;;2.70;2.50;;;20.70;99.90;;;;;;5054828;28;20164;-72
2022/05/31 18:08:10;;;;;;;2.28;2.17;;;20.60;99.90;;;;;;5054821;28;20169;-72
2022/05/31 18:10:36;;;;;;;2.60;2.15;;;20.50;99.90;;;;;;5054739;28;20164;-72
2022/05/31 18:13:02;;;;;;;5.18;3.00;;;20.20;99.90;;;;;;5053394;28;20265;-72
2022/05/31 18:15:28;;;;;;;2.95;2.75;;;20.00;99.90;;;;;;5054742;28;20184;-72
2022/05/31 18:17:53;;;;;;;5.47;3.20;;;19.80;99.90;;;;;;5054627;28;20180;-72
2022/05/31 18:20:19;;;;;;;4.13;2.30;;;19.70;99.90;;;;;;5054419;28;20196;-72
2022/05/31 18:22:47;;;;;;;2.53;2.33;;;19.80;99.90;;;;;;5054455;28;20250;-72
2022/05/31 18:25:18;;;;;;;3.13;2.70;;;19.70;99.90;;;;;;5053927;28;20207;-72
2022/05/31 18:27:44;;;;;;;2.72;2.40;;;19.70;99.90;;;;;;5054161;28;20176;-72
2022/05/31 18:30:14;;;;;;;2.42;2.33;;;19.60;99.90;;;;;;5054529;28;20532;-72
2022/05/31 18:32:40;;;;;;;3.22;2.17;;;19.60;99.90;;;;;;5054319;28;20172;-72
2022/05/31 18:35:10;;;;;;;2.00;1.90;;;19.60;99.90;;;;;;5054277;28;20226;-72
2022/05/31 18:42:59;;;;;;;2.92;2.10;;;19.30;99.90;;;;;;5054333;28;20669;-72
2022/05/31 18:45:25;;;;;;;3.10;2.25;;;18.80;99.90;;;;;;5052746;28;20169;-72
2022/05/31 18:47:53;;;;;;;2.20;2.10;;;18.40;99.90;;;;;;5054007;28;20226;-72
2022/05/31 18:50:19;;;;;;;2.10;2.00;;;18.00;99.90;;;;;;5053980;28;20193;-72
2022/05/31 18:52:50;;;;;;;2.60;1.95;;;17.70;99.90;;;;;;5053875;28;20207;-72
2022/05/31 18:55:15;;;;;;;1.90;1.80;;;17.40;99.90;;;;;;5052582;28;20173;-72
2022/05/31 18:57:47;;;;;;;1.77;1.67;;;17.10;99.90;;;;;;5053781;28;20175;-71
2022/05/31 19:00:13;;;;;;;4.15;1.77;;;16.80;99.90;;;;;;5052578;28;20191;-71
2022/05/31 19:02:40;;;;;;;3.67;2.00;;;16.60;99.90;;;;;;5053677;28;20197;-71
